Julian, CA

2:54 AM PDT on March 29, 2015 (GMT -0700)
Cielo Vista Observatory, Harrison Park | | Change Station
CLOSE
Current Station
Personal Weather Station
Location: Julian, CA
Elevation: 4534 ft
Nearby Weather Stations

Elev 4534 ft 33.03 °N, 116.57 °W | Updated 3 minutes ago

Partly Cloudy
Partly Cloudy
60.5 °F
Feels Like 60.5 °F
N
7.0
Wind Variable Wind from SW
Gusts 8.0 mph

Today
High -- | Low -- °F
--% Chance of Precip.
Yesterday
High -- | Low -- °F
Precip. -- in
6:38 AM 7:04 PM
Waxing Gibbous, 70% visible
Pressure 29.99 in
Visibility -9999.0 miles
Clouds
Dew Point 17 °F
Humidity 18%
Rainfall 0.00 in
Snow Depth Not available.
UV Not available.
Pollen 9.50 out of 12
Air Quality Not available.
Flu Activity Not available.
METAR KCZZ 290952Z AUTO 04004KT 08/02 A3007 RMK AO1 SLP153 T00830017

More Conditions Fewer Conditions

Pressure 29.99 in
Visibility -9999.0 miles
Clouds
Dew Point 17 °F
Humidity 18%
Rainfall 0.00 in
Snow Depth Not available.
UV Not available.
Pollen 9.50 out of 12
Air Quality Not available.
Flu Activity Not available.
METAR KCZZ 290952Z AUTO 04004KT 08/02 A3007 RMK AO1 SLP153 T00830017

More Conditions Fewer Conditions

10-Day Weather Forecast

Almanac

Astronomy

Mar. 29, 2015 Rise Set
Actual Time
Civil Twilight
Nautical Twilight
Astronomical Twilight
Moon
Length of Visible Light
Length of Day
Tomorrow will be .
, % of the Moon is Illuminated

Today's Extremes

State Highs State Lows

Community

WunderPhotos

Upload Photos

1,809,199 photos uploaded!

WunderBlogs® & News

Nearby

Air Quality

  Air Quality AQ Index Pollutant
Not available.

Snow Depth

Station Depth Elevation

Earthquake Activity

City Distance Mag. Time & Date
Minimum magnitude displayed is 2.5.

Coastal Water Temperatures

Place Temperature

Stations

Nearby Weather Stations

Station Location Temp. Windchill Dew Point Humidity Wind Precip. Elev Updated Type